Time;durP1;ratioP1;P1;durP2;ratioP2;P2;SDS_P1;SDS_P2;PMS_P1;PMS_P2;Temp;Humidity;BMP_temperature;BMP_pressure;BME280_temperature;BME280_humidity;BME280_pressure;Samples;Min_cycle;Max_cycle;Signal;HPM_P1;HPM_P2
2021/07/05 00:01:31;;;;;;;7.90;6.90;;;;;;;17.25;84.73;99892.17;92696;1216;87790;-61
2021/07/05 00:03:39;;;;;;;9.20;6.90;;;;;;;17.33;84.65;99886.30;92676;1216;75093;-59
2021/07/05 00:05:49;;;;;;;7.50;6.70;;;;;;;17.34;84.62;99886.05;92669;1222;82207;-68
2021/07/05 00:07:57;;;;;;;7.50;6.80;;;;;;;17.37;84.79;99880.09;92678;1217;66733;-69
2021/07/05 00:10:07;;;;;;;7.10;6.40;;;;;;;17.37;84.66;99873.80;92723;1217;69717;-60
2021/07/05 00:12:18;;;;;;;7.20;6.50;;;;;;;17.33;84.62;99881.65;92727;1217;86331;-60
2021/07/05 00:14:26;;;;;;;7.30;6.50;;;;;;;17.36;84.56;99872.17;92705;1216;75592;-60
2021/07/05 00:16:34;;;;;;;7.60;6.90;;;;;;;17.38;84.61;99870.84;92740;1216;80349;-69
2021/07/05 00:18:41;;;;;;;8.50;7.00;;;;;;;17.36;84.66;99874.89;92725;1217;65712;-68
2021/07/05 00:20:50;;;;;;;8.90;6.90;;;;;;;17.39;84.81;99880.67;92675;1224;69488;-59
2021/07/05 00:22:58;;;;;;;7.60;6.90;;;;;;;17.40;84.66;99876.88;92691;1216;87138;-60
2021/07/05 00:25:08;;;;;;;7.30;6.60;;;;;;;17.44;84.71;99875.30;92714;1217;75036;-60
2021/07/05 00:27:16;;;;;;;7.70;6.70;;;;;;;17.38;84.72;99868.11;92695;1223;81937;-60
2021/07/05 00:29:24;;;;;;;8.10;7.30;;;;;;;17.42;84.62;99873.88;92703;1217;66900;-60
2021/07/05 00:31:31;;;;;;;7.80;7.00;;;;;;;17.47;84.64;99866.61;92709;1222;68069;-60
2021/07/05 00:33:39;;;;;;;9.50;7.70;;;;;;;17.49;84.73;99869.95;92700;1217;85574;-60
2021/07/05 00:35:50;;;;;;;7.80;7.00;;;;;;;17.53;84.65;99875.72;92691;1218;74910;-58
2021/07/05 00:38:01;;;;;;;8.90;7.90;;;;;;;17.54;84.75;99866.49;92719;1217;81747;-60
2021/07/05 00:40:13;;;;;;;8.70;7.90;;;;;;;17.57;84.75;99871.47;92706;1224;66594;-69
2021/07/05 00:42:21;;;;;;;8.90;8.00;;;;;;;17.61;84.74;99864.41;92710;1217;67546;-68
2021/07/05 00:44:32;;;;;;;9.30;8.30;;;;;;;17.61;84.56;99858.95;92705;1217;85913;-67
2021/07/05 00:46:40;;;;;;;8.90;8.10;;;;;;;17.58;84.67;99853.98;92699;1217;74820;-68
2021/07/05 00:48:47;;;;;;;8.90;7.50;;;;;;;17.61;84.70;99850.75;92724;1217;80706;-69
2021/07/05 00:50:55;;;;;;;9.50;8.60;;;;;;;17.66;84.74;99859.06;92716;1217;65434;-59
2021/07/05 00:53:05;;;;;;;10.10;8.10;;;;;;;17.68;84.58;99851.44;92733;1222;68213;-59
2021/07/05 00:55:15;;;;;;;9.20;8.20;;;;;;;17.70;84.63;99854.73;92697;1216;86668;-60
2021/07/05 00:57:25;;;;;;;9.10;8.20;;;;;;;17.70;84.69;99854.73;92687;1217;74405;-59
2021/07/05 00:59:33;;;;;;;11.40;8.40;;;;;;;17.75;84.62;99857.55;92703;1217;81266;-60
2021/07/05 01:01:41;;;;;;;12.10;8.40;;;;;;;17.79;84.69;99857.88;92710;1216;67001;-59
2021/07/05 01:03:49;;;;;;;9.80;8.60;;;;;;;17.79;84.69;99844.22;92718;1217;68919;-59
2021/07/05 01:05:56;;;;;;;9.50;8.60;;;;;;;17.84;84.64;99856.06;92705;1209;85917;-69
2021/07/05 01:08:08;;;;;;;9.00;8.10;;;;;;;17.84;84.78;99855.23;92717;1217;75726;-67
2021/07/05 01:10:18;;;;;;;10.00;7.80;;;;;;;17.90;84.57;99856.97;88002;1209;3013318;-59
2021/07/05 01:12:26;;;;;;;10.10;9.20;;;;;;;17.90;84.65;99852.33;92733;1223;65838;-60
2021/07/05 01:14:34;;;;;;;9.80;8.80;;;;;;;17.91;84.70;99855.90;92717;1217;68507;-60
2021/07/05 01:16:42;;;;;;;9.90;8.90;;;;;;;17.92;84.74;99863.83;92718;1221;86922;-68
2021/07/05 01:18:50;;;;;;;10.30;9.30;;;;;;;17.94;84.54;99863.57;92712;1222;74447;-68
2021/07/05 01:21:03;;;;;;;9.20;8.30;;;;;;;17.96;84.62;99870.47;92663;1209;81142;-60
2021/07/05 01:23:13;;;;;;;9.10;8.20;;;;;;;17.95;84.78;99865.23;92672;1218;65914;-60
2021/07/05 01:25:25;;;;;;;9.90;8.90;;;;;;;17.93;84.70;99870.97;92696;1224;69759;-60
2021/07/05 01:27:33;;;;;;;9.80;8.90;;;;;;;17.95;84.78;99871.54;92675;1216;85073;-59
2021/07/05 01:29:45;;;;;;;10.40;9.40;;;;;;;17.93;84.74;99867.41;92673;1217;75227;-60
2021/07/05 01:31:53;;;;;;;10.60;9.00;;;;;;;17.94;84.88;99867.14;92681;1216;80861;-60
2021/07/05 01:34:01;;;;;;;11.00;9.90;;;;;;;17.94;84.93;99875.34;92727;1209;66908;-58
2021/07/05 01:36:11;;;;;;;10.60;9.60;;;;;;;17.94;84.84;99875.34;92724;1221;67669;-58
2021/07/05 01:38:21;;;;;;;10.50;9.50;;;;;;;17.90;85.00;99874.20;92720;1224;86334;-60
2021/07/05 01:40:29;;;;;;;10.80;9.70;;;;;;;17.90;85.01;99876.93;92694;1217;74691;-68
2021/07/05 01:42:37;;;;;;;9.90;9.00;;;;;;;17.91;85.00;99873.09;92677;1217;81472;-67
2021/07/05 01:44:45;;;;;;;10.70;9.60;;;;;;;17.91;85.01;99873.09;92684;1217;66277;-67
2021/07/05 01:46:55;;;;;;;10.70;9.70;;;;;;;17.91;85.16;99877.77;92701;1221;67984;-68
2021/07/05 01:49:03;;;;;;;12.10;10.70;;;;;;;17.91;84.99;99884.03;92688;1217;86421;-68
2021/07/05 01:51:14;;;;;;;11.60;10.20;;;;;;;17.92;85.01;99869.30;92721;1217;73703;-68
2021/07/05 01:53:22;;;;;;;10.40;9.40;;;;;;;17.93;85.09;99865.50;92667;1216;82682;-69
2021/07/05 01:55:33;;;;;;;11.50;9.60;;;;;;;17.97;85.06;99865.80;92692;1209;66940;-60
2021/07/05 01:57:41;;;;;;;11.90;10.40;;;;;;;18.00;84.97;99866.14;92714;1216;68802;-60
2021/07/05 01:59:49;;;;;;;10.40;9.40;;;;;;;18.00;85.04;99868.88;92690;1217;86696;-61
2021/07/05 02:01:59;;;;;;;11.00;9.60;;;;;;;18.01;85.08;99872.44;92710;1217;75135;-60
2021/07/05 02:04:08;;;;;;;11.10;10.10;;;;;;;17.99;85.06;99875.41;92694;1223;80130;-59
2021/07/05 02:06:16;;;;;;;9.70;8.80;;;;;;;18.02;85.31;99874.11;92680;1224;68190;-59
2021/07/05 02:08:23;;;;;;;10.70;9.60;;;;;;;18.03;85.25;99875.74;92699;1216;68529;-59
2021/07/05 02:10:34;;;;;;;10.90;9.90;;;;;;;18.01;85.28;99873.27;92667;1217;87150;-67
2021/07/05 02:12:42;;;;;;;10.70;9.70;;;;;;;18.01;85.21;99870.55;92706;1216;75571;-67
2021/07/05 02:14:53;;;;;;;12.90;9.90;;;;;;;18.01;85.26;99878.74;92696;1222;80092;-67
2021/07/05 02:17:01;;;;;;;11.40;10.10;;;;;;;18.01;85.22;99872.44;92688;1216;68706;-67
2021/07/05 02:19:09;;;;;;;11.20;10.00;;;;;;;18.03;85.33;99873.84;92709;1216;68375;-68
2021/07/05 02:21:17;;;;;;;10.90;9.90;;;;;;;18.04;85.37;99877.41;92693;1209;85300;-67
2021/07/05 02:23:25;;;;;;;10.70;9.60;;;;;;;18.02;85.33;99866.71;92705;1216;76234;-67
2021/07/05 02:25:37;;;;;;;10.30;9.30;;;;;;;18.02;85.32;99869.45;92698;1222;80905;-67
2021/07/05 02:27:46;;;;;;;10.90;9.90;;;;;;;18.04;85.37;99866.48;92714;1217;66816;-67
2021/07/05 02:29:54;;;;;;;11.40;10.30;;;;;;;18.02;85.46;99863.98;92720;1217;68274;-67
2021/07/05 02:32:05;;;;;;;10.60;9.60;;;;;;;18.05;85.31;99862.64;92706;1216;87104;-69
2021/07/05 02:34:13;;;;;;;11.40;9.40;;;;;;;18.05;85.46;99868.11;92724;1222;74658;-68
2021/07/05 02:36:21;;;;;;;10.40;9.50;;;;;;;18.05;85.32;99873.58;92678;1222;81805;-59
2021/07/05 02:38:31;;;;;;;10.90;9.80;;;;;;;18.06;85.47;99864.31;92690;1217;69082;-59
2021/07/05 02:40:42;;;;;;;11.00;10.00;;;;;;;18.08;85.59;99871.18;92659;1217;67670;-59
2021/07/05 02:42:51;;;;;;;11.20;10.10;;;;;;;18.12;85.58;99874.25;92621;1218;85400;-59
2021/07/05 02:45:02;;;;;;;11.40;10.20;;;;;;;18.16;85.59;99876.22;92721;1217;75507;-58
2021/07/05 02:47:09;;;;;;;11.10;10.00;;;;;;;18.20;85.51;99876.55;92712;1218;82066;-59
2021/07/05 02:49:17;;;;;;;11.30;10.10;;;;;;;18.23;85.50;99882.36;92593;1219;68612;-60
2021/07/05 02:51:24;;;;;;;11.00;10.00;;;;;;;18.23;85.53;99885.09;92699;1217;69807;-60
2021/07/05 02:53:33;;;;;;;13.50;10.50;;;;;;;18.26;85.64;99886.49;92709;1221;87137;-59
2021/07/05 02:55:41;;;;;;;11.50;10.10;;;;;;;18.30;85.47;99884.89;92708;1217;75344;-68
2021/07/05 02:57:50;;;;;;;12.00;10.80;;;;;;;18.35;85.54;99884.95;92730;1223;81402;-68
2021/07/05 03:00:01;;;;;;;11.50;10.40;;;;;;;18.36;85.56;99883.89;92697;1217;68947;-67
2021/07/05 03:02:08;;;;;;;11.10;10.00;;;;;;;18.37;85.45;99882.81;92685;1224;68642;-67
2021/07/05 03:04:16;;;;;;;12.90;10.60;;;;;;;18.39;85.62;99885.29;92713;1216;87399;-69
2021/07/05 03:06:24;;;;;;;11.40;10.40;;;;;;;18.44;85.56;99888.09;92707;1223;75406;-58
2021/07/05 03:08:32;;;;;;;10.90;9.80;;;;;;;18.47;85.52;99890.32;92685;1224;81353;-60
2021/07/05 03:10:42;;;;;;;9.90;9.00;;;;;;;18.49;85.51;99885.45;92703;1216;68697;-68
2021/07/05 03:12:52;;;;;;;10.20;9.30;;;;;;;18.49;85.52;99891.75;92719;1219;68986;-69
2021/07/05 03:15:00;;;;;;;11.40;10.20;;;;;;;18.52;85.67;99888.52;92706;1217;86897;-61
2021/07/05 03:17:07;;;;;;;11.10;9.60;;;;;;;18.56;85.57;99894.31;92711;1217;75812;-59
2021/07/05 03:19:15;;;;;;;11.40;10.30;;;;;;;18.55;85.66;99890.74;92693;1217;80956;-59
2021/07/05 03:21:22;;;;;;;11.40;10.30;;;;;;;18.60;85.46;99889.97;92664;1223;68277;-61
2021/07/05 03:23:31;;;;;;;10.90;9.90;;;;;;;18.59;85.53;99891.91;92711;1217;68981;-59
2021/07/05 03:25:43;;;;;;;12.40;11.00;;;;;;;18.59;85.63;99891.08;92729;1217;85496;-59
2021/07/05 03:27:52;;;;;;;12.40;11.20;;;;;;;18.62;85.55;99901.52;92734;1216;75128;-59
2021/07/05 03:30:03;;;;;;;13.70;11.90;;;;;;;18.65;85.37;99895.54;92695;1217;81774;-60
2021/07/05 03:32:12;;;;;;;12.90;11.60;;;;;;;18.66;85.53;99895.27;92696;1224;68490;-59
2021/07/05 03:34:20;;;;;;;13.00;11.40;;;;;;;18.65;85.58;99892.80;92724;1222;68510;-59
2021/07/05 03:36:28;;;;;;;13.50;11.60;;;;;;;18.67;85.48;99893.36;92641;1220;87691;-60
2021/07/05 03:38:35;;;;;;;12.90;11.60;;;;;;;18.69;85.63;99894.77;92708;1222;75077;-61
2021/07/05 03:40:43;;;;;;;12.50;11.30;;;;;;;18.72;85.50;99896.16;92679;1224;81241;-68
2021/07/05 03:42:51;;;;;;;12.10;10.90;;;;;;;18.71;85.42;99900.80;92716;1217;69442;-68
2021/07/05 03:44:59;;;;;;;13.20;11.80;;;;;;;18.74;85.40;99896.73;92688;1209;67825;-69
2021/07/05 03:47:07;;;;;;;12.10;11.00;;;;;;;18.73;85.44;99895.89;92729;1221;85787;-69
2021/07/05 03:49:17;;;;;;;12.40;11.20;;;;;;;18.75;85.69;99898.39;92727;1223;74010;-68
2021/07/05 03:51:25;;;;;;;13.90;11.60;;;;;;;18.77;85.76;99896.22;92691;1216;80161;-59
2021/07/05 03:53:32;;;;;;;12.80;11.50;;;;;;;18.78;85.60;99895.15;92700;1217;67407;-60
2021/07/05 03:55:40;;;;;;;13.10;11.80;;;;;;;18.78;85.54;99906.09;92670;1217;67861;-69
2021/07/05 03:57:49;;;;;;;12.60;11.40;;;;;;;18.83;85.70;99900.68;92708;1217;86461;-68
2021/07/05 03:59:58;;;;;;;13.50;11.80;;;;;;;18.87;85.53;99907.28;92704;1217;74711;-66
2021/07/05 04:02:08;;;;;;;14.80;12.40;;;;;;;18.91;85.74;99897.48;92688;1221;82348;-68
2021/07/05 04:04:16;;;;;;;13.60;12.20;;;;;;;18.87;85.56;99904.55;92707;1217;66646;-67
2021/07/05 04:06:23;;;;;;;13.10;11.90;;;;;;;18.91;85.68;99910.34;92702;1217;68334;-60
2021/07/05 04:08:34;;;;;;;12.90;11.50;;;;;;;18.93;85.74;99908.17;92706;1209;85847;-59
2021/07/05 04:10:41;;;;;;;12.90;11.60;;;;;;;18.95;85.58;99906.86;92686;1220;74827;-68
2021/07/05 04:12:49;;;;;;;13.30;12.00;;;;;;;19.00;85.79;99906.08;92716;1217;80599;-67
2021/07/05 04:15:00;;;;;;;13.30;12.00;;;;;;;19.02;85.82;99901.17;92702;1224;65692;-59
2021/07/05 04:17:11;;;;;;;12.40;11.20;;;;;;;19.08;85.51;99906.45;92721;1224;69180;-60
2021/07/05 04:19:19;;;;;;;12.60;11.30;;;;;;;19.11;85.64;99903.21;92688;1210;86862;-59
2021/07/05 04:21:26;;;;;;;12.40;11.30;;;;;;;19.14;85.51;99901.87;92674;1216;74715;-60
2021/07/05 04:23:34;;;;;;;12.60;11.20;;;;;;;19.18;85.55;99903.83;92695;1217;82765;-60
2021/07/05 04:25:42;;;;;;;12.40;11.30;;;;;;;19.20;85.52;99909.86;92694;1218;65940;-61
2021/07/05 04:27:51;;;;;;;13.00;11.50;;;;;;;19.22;85.62;99902.23;92719;1209;68429;-60
2021/07/05 04:29:59;;;;;;;11.90;10.70;;;;;;;19.28;85.73;99900.38;92730;1220;85412;-68
2021/07/05 04:32:11;;;;;;;13.20;11.90;;;;;;;19.30;85.55;99899.03;92680;1224;75342;-67
2021/07/05 04:34:22;;;;;;;13.20;11.90;;;;;;;19.35;85.67;99901.82;92711;1223;81408;-67
2021/07/05 04:36:30;;;;;;;12.60;11.50;;;;;;;19.38;85.58;99901.34;92660;1221;67195;-61
2021/07/05 04:38:38;;;;;;;13.70;12.20;;;;;;;19.45;85.57;99903.85;92744;1217;69668;-60
2021/07/05 04:40:49;;;;;;;13.50;12.10;;;;;;;19.52;85.30;99906.39;92676;1224;86443;-60
2021/07/05 04:42:57;;;;;;;12.70;11.00;;;;;;;19.52;85.39;99907.23;92716;1209;74989;-61
2021/07/05 04:45:07;;;;;;;12.50;11.20;;;;;;;19.56;85.24;99913.02;92697;1217;82982;-61
2021/07/05 04:47:15;;;;;;;12.80;11.50;;;;;;;19.55;85.26;99920.41;92678;1216;66055;-62
2021/07/05 04:49:26;;;;;;;13.10;11.90;;;;;;;19.58;85.46;99914.41;92713;1223;69511;-62
2021/07/05 04:51:36;;;;;;;13.40;12.10;;;;;;;19.63;85.41;99908.14;92692;1216;87128;-67
2021/07/05 04:53:44;;;;;;;12.40;10.90;;;;;;;19.64;85.20;99913.34;92697;1217;74762;-67
2021/07/05 04:55:56;;;;;;;14.90;12.20;;;;;;;19.63;85.34;99910.88;92646;1214;81476;-61
2021/07/05 04:58:04;;;;;;;13.40;12.00;;;;;;;19.63;85.11;99913.63;92714;1216;65909;-60
2021/07/05 05:00:17;;;;;;;13.80;12.30;;;;;;;19.62;85.33;99911.95;92692;1217;67876;-69
2021/07/05 05:02:27;;;;;;;13.50;12.20;;;;;;;19.62;85.01;99906.48;92724;1217;86357;-68
2021/07/05 05:04:35;;;;;;;13.30;11.80;;;;;;;19.63;85.31;99905.40;92717;1217;73665;-68
2021/07/05 05:06:43;;;;;;;13.50;12.10;;;;;;;19.65;85.21;99897.73;92724;1217;80978;-61
2021/07/05 05:08:51;;;;;;;13.70;12.40;;;;;;;19.67;85.11;99892.81;92698;1217;68617;-60
2021/07/05 05:10:59;;;;;;;14.00;12.50;;;;;;;19.75;85.09;99893.16;92703;1224;69773;-68
2021/07/05 05:13:08;;;;;;;13.00;11.70;;;;;;;19.86;85.22;99894.10;92703;1223;86452;-68
2021/07/05 05:15:19;;;;;;;13.70;12.20;;;;;;;19.86;85.05;99892.16;92683;1217;76064;-63
2021/07/05 05:17:27;;;;;;;11.80;10.60;;;;;;;19.91;85.23;99894.94;92700;1217;81961;-60
2021/07/05 05:19:44;;;;;;;11.60;10.40;;;;;;;19.95;85.18;99896.08;92674;1224;67193;-62
2021/07/05 05:21:51;;;;;;;13.60;11.90;;;;;;;19.96;84.96;99891.43;92674;1216;68007;-68
2021/07/05 05:23:59;;;;;;;12.00;10.80;;;;;;;19.93;84.82;99887.30;92647;1216;87540;-67
2021/07/05 05:26:07;;;;;;;12.30;10.40;;;;;;;19.96;85.05;99883.20;92647;1216;75653;-69
2021/07/05 05:28:15;;;;;;;12.30;10.70;;;;;;;20.04;85.08;99888.20;92656;1216;81796;-69
2021/07/05 05:30:25;;;;;;;12.20;10.00;;;;;;;20.09;84.75;99884.66;92639;1216;69620;-63
2021/07/05 05:32:32;;;;;;;12.00;10.90;;;;;;;20.11;85.05;99890.72;92658;1216;68503;-62
2021/07/05 05:34:40;;;;;;;12.10;10.80;;;;;;;20.06;84.76;99887.92;92690;1209;86334;-66
2021/07/05 05:36:48;;;;;;;12.10;10.90;;;;;;;20.06;84.83;99886.01;92661;1217;75081;-70
2021/07/05 05:38:56;;;;;;;11.80;10.60;;;;;;;20.07;84.70;99889.58;92629;1217;81450;-67
2021/07/05 05:41:03;;;;;;;10.60;9.50;;;;;;;20.06;84.62;99891.48;92638;1220;67756;-63
2021/07/05 05:43:11;;;;;;;11.60;10.20;;;;;;;20.04;84.64;99893.68;92578;1219;68803;-66
2021/07/05 05:45:19;;;;;;;14.10;10.30;;;;;;;20.09;84.73;99893.71;92646;1217;87193;-60
2021/07/05 05:47:29;;;;;;;17.90;11.70;;;;;;;20.17;84.61;99892.38;92674;1222;74193;-62
2021/07/05 05:49:40;;;;;;;17.70;11.40;;;;;;;20.21;84.53;99890.78;92650;1216;81989;-65
2021/07/05 05:51:48;;;;;;;18.30;11.40;;;;;;;20.26;84.61;99893.58;92644;1216;67539;-61
2021/07/05 05:53:59;;;;;;;12.70;10.90;;;;;;;20.24;84.50;99904.84;92637;1216;71201;-64
2021/07/05 05:56:08;;;;;;;11.90;10.50;;;;;;;20.29;84.11;99899.38;92683;1216;85756;-72
2021/07/05 05:58:15;;;;;;;12.30;10.50;;;;;;;20.38;84.03;99896.96;92669;1216;74853;-71
2021/07/05 06:00:25;;;;;;;11.80;10.60;;;;;;;20.37;83.97;99895.30;92646;1216;80264;-68
2021/07/05 06:02:33;;;;;;;10.90;9.80;;;;;;;20.44;84.13;99896.70;92650;1216;67687;-69
2021/07/05 06:04:41;;;;;;;10.80;9.70;;;;;;;20.53;84.19;99891.55;92670;1216;67625;-62
2021/07/05 06:06:49;;;;;;;10.90;9.70;;;;;;;20.55;83.93;99889.34;92644;1216;86829;-61
2021/07/05 06:08:57;;;;;;;11.70;9.30;;;;;;;20.65;84.27;99888.59;92666;1216;74918;-62
2021/07/05 06:11:05;;;;;;;9.30;8.40;;;;;;;20.78;83.88;99890.83;92670;1216;81475;-61
2021/07/05 06:13:12;;;;;;;10.60;9.50;;;;;;;20.89;83.91;99895.27;92629;1216;66885;-62
2021/07/05 06:15:23;;;;;;;10.30;9.40;;;;;;;20.99;83.71;99900.79;92647;1224;68855;-67
2021/07/05 06:17:30;;;;;;;10.10;9.10;;;;;;;21.22;84.18;99894.86;92655;1216;86871;-68
2021/07/05 06:19:38;;;;;;;10.80;9.70;;;;;;;21.64;83.93;99892.74;92658;1216;74787;-63
2021/07/05 06:21:45;;;;;;;10.50;9.40;;;;;;;22.50;83.61;99897.34;92636;1216;80843;-61
2021/07/05 06:23:53;;;;;;;9.00;8.20;;;;;;;23.24;83.33;99894.60;92640;1216;67288;-63
2021/07/05 06:26:03;;;;;;;8.00;7.20;;;;;;;24.38;81.48;99898.69;92659;1216;69097;-62
2021/07/05 06:28:11;;;;;;;8.40;7.70;;;;;;;24.78;79.71;99887.16;92620;1216;87058;-61
2021/07/05 06:30:22;;;;;;;8.70;7.90;;;;;;;25.28;79.08;99894.00;92680;1216;74240;-66
2021/07/05 06:32:30;;;;;;;9.10;8.30;;;;;;;26.32;76.80;99889.02;92631;1217;82575;-68
2021/07/05 06:34:39;;;;;;;10.80;8.60;;;;;;;26.67;76.08;99890.30;92630;1216;65237;-64
2021/07/05 06:36:46;;;;;;;9.20;8.30;;;;;;;28.30;75.01;99884.30;92636;1217;67726;-59
2021/07/05 06:38:54;;;;;;;10.10;8.40;;;;;;;30.11;71.65;99891.08;92645;1216;87192;-61
2021/07/05 06:41:02;;;;;;;7.90;7.20;;;;;;;31.47;68.07;99891.67;92640;1216;75528;-60
2021/07/05 06:43:12;;;;;;;7.80;7.10;;;;;;;32.76;66.42;99885.61;92675;1209;80048;-61
2021/07/05 06:45:20;;;;;;;7.20;6.60;;;;;;;33.62;63.69;99899.19;92662;1216;66405;-68
2021/07/05 06:47:28;;;;;;;7.80;6.50;;;;;;;33.78;60.61;99891.69;92660;1217;69509;-67
2021/07/05 06:49:38;;;;;;;7.80;7.10;;;;;;;32.60;60.00;99904.25;92656;1217;86526;-67
2021/07/05 06:51:46;;;;;;;8.30;7.60;;;;;;;31.57;59.34;99908.01;92653;1216;75154;-67
2021/07/05 06:53:54;;;;;;;7.20;6.50;;;;;;;30.48;60.40;99906.27;92647;1216;81337;-69
2021/07/05 06:56:01;;;;;;;7.60;6.80;;;;;;;29.51;60.65;99900.27;92677;1217;65071;-62
2021/07/05 06:58:10;;;;;;;7.90;7.20;;;;;;;29.51;62.05;99891.92;92675;1216;68777;-61
2021/07/05 07:00:21;;;;;;;8.60;7.70;;;;;;;30.15;60.86;99901.25;92674;1221;85780;-67
2021/07/05 07:02:33;;;;;;;8.70;7.50;;;;;;;29.48;60.08;99903.70;92677;1209;74379;-68
2021/07/05 07:04:40;;;;;;;7.20;6.60;;;;;;;28.91;60.10;99905.70;92636;1222;81409;-65
2021/07/05 07:06:49;;;;;;;7.00;6.30;;;;;;;28.32;61.03;99895.91;92632;1216;65635;-66
2021/07/05 07:08:57;;;;;;;7.30;6.50;;;;;;;27.63;61.47;99897.39;92677;1216;69575;-69
2021/07/05 07:11:08;;;;;;;7.30;6.50;;;;;;;27.21;62.92;99901.38;92621;1216;86109;-68
2021/07/05 07:13:17;;;;;;;6.80;6.10;;;;;;;26.70;62.55;99896.03;92656;1216;75350;-68
2021/07/05 07:15:31;;;;;;;6.70;6.00;;;;;;;26.26;63.18;99901.34;92628;1217;81513;-68
2021/07/05 07:17:43;;;;;;;7.20;6.60;;;;;;;26.02;64.55;99898.67;92641;1224;66073;-68
2021/07/05 07:19:51;;;;;;;8.20;7.40;;;;;;;26.03;64.84;99891.19;92662;1221;69672;-66
2021/07/05 07:22:03;;;;;;;7.20;6.60;;;;;;;25.93;64.89;99888.61;92680;1217;86768;-67
2021/07/05 07:24:14;;;;;;;8.40;7.70;;;;;;;26.57;65.98;99888.54;92720;1217;76026;-67
2021/07/05 07:26:22;;;;;;;8.30;7.40;;;;;;;27.72;65.32;99891.89;92685;1216;81452;-63
2021/07/05 07:28:31;;;;;;;7.80;6.90;;;;;;;29.17;64.22;99883.52;92705;1216;66789;-65
2021/07/05 07:30:38;;;;;;;6.70;6.20;;;;;;;30.53;62.76;99886.56;92645;1217;68692;-65
2021/07/05 07:32:48;;;;;;;8.80;7.10;;;;;;;30.84;60.23;99885.13;92692;1224;88113;-65
2021/07/05 07:34:56;;;;;;;7.20;6.60;;;;;;;30.46;59.09;99889.06;92723;1221;76150;-66
2021/07/05 07:37:08;;;;;;;7.20;6.60;;;;;;;29.67;58.85;99895.03;92696;1217;82666;-65
2021/07/05 07:39:17;;;;;;;7.70;6.90;;;;;;;28.80;58.90;99898.79;92690;1222;67727;-65
2021/07/05 07:41:29;;;;;;;7.70;6.80;;;;;;;28.21;59.55;99902.08;92711;1224;68166;-63
2021/07/05 07:43:38;;;;;;;7.60;6.90;;;;;;;29.43;61.37;99897.48;92716;1222;86824;-63
2021/07/05 07:45:48;;;;;;;7.80;6.50;;;;;;;30.59;59.10;99891.64;92698;1224;74872;-65
2021/07/05 07:47:57;;;;;;;7.30;6.10;;;;;;;31.01;58.17;99886.21;92710;1223;81163;-67
2021/07/05 07:50:06;;;;;;;6.20;5.60;;;;;;;30.36;57.37;99890.20;92709;1217;66039;-66
2021/07/05 07:52:14;;;;;;;7.10;6.30;;;;;;;29.65;57.46;99884.23;92702;1217;68511;-66
2021/07/05 07:54:21;;;;;;;7.70;6.30;;;;;;;28.96;58.65;99882.47;92725;1217;86538;-66
2021/07/05 07:56:31;;;;;;;8.10;6.40;;;;;;;28.26;58.88;99879.72;92723;1222;75038;-66
2021/07/05 07:58:38;;;;;;;7.30;6.60;;;;;;;28.01;59.73;99889.50;92712;1217;81742;-67
2021/07/05 08:00:46;;;;;;;7.40;6.00;;;;;;;28.86;61.13;99880.00;92686;1222;66739;-60
2021/07/05 08:02:54;;;;;;;6.20;5.70;;;;;;;30.55;59.69;99873.92;92717;1217;67996;-61
2021/07/05 08:05:01;;;;;;;6.80;6.10;;;;;;;31.36;57.56;99874.48;92715;1210;85372;-60
2021/07/05 08:07:10;;;;;;;10.00;6.40;;;;;;;31.43;56.61;99873.92;92704;1217;75281;-60
2021/07/05 08:09:17;;;;;;;6.30;5.70;;;;;;;31.52;55.99;99878.33;92695;1217;82050;-60
2021/07/05 08:11:28;;;;;;;7.00;5.60;;;;;;;31.63;56.26;99880.69;92685;1217;65967;-62
2021/07/05 08:13:35;;;;;;;5.70;5.20;;;;;;;32.61;53.73;99873.13;92721;1221;69778;-68
2021/07/05 08:15:43;;;;;;;6.00;5.40;;;;;;;32.26;52.59;99871.05;92708;1223;87219;-68
2021/07/05 08:17:51;;;;;;;5.60;5.10;;;;;;;32.60;53.50;99874.31;92696;1216;74817;-68
2021/07/05 08:19:58;;;;;;;7.70;5.50;;;;;;;33.74;51.90;99878.73;92742;1214;80278;-68
2021/07/05 08:22:10;;;;;;;22.80;8.00;;;;;;;33.07;50.38;99883.05;92685;1217;65428;-67
2021/07/05 08:24:17;;;;;;;45.50;13.80;;;;;;;32.59;50.75;99877.44;92726;1223;69215;-67
2021/07/05 08:26:25;;;;;;;27.60;9.20;;;;;;;31.63;51.22;99884.30;92701;1217;87053;-69
2021/07/05 08:28:33;;;;;;;47.30;11.90;;;;;;;31.71;51.87;99886.20;92696;1218;75751;-67
2021/07/05 08:30:41;;;;;;;27.80;9.40;;;;;;;32.72;51.73;99873.47;92692;1217;80571;-66
2021/07/05 08:32:49;;;;;;;7.20;5.30;;;;;;;33.61;51.41;99875.17;92707;1217;67120;-68
2021/07/05 08:34:56;;;;;;;5.60;5.00;;;;;;;34.18;49.37;99871.19;92735;1222;69546;-64
2021/07/05 08:37:07;;;;;;;6.50;4.60;;;;;;;34.74;48.33;99869.09;92693;1222;86635;-62
2021/07/05 08:39:15;;;;;;;9.10;5.40;;;;;;;35.32;47.43;99870.92;92759;1208;74469;-70
2021/07/05 08:41:24;;;;;;;5.60;4.40;;;;;;;34.82;47.35;99863.29;92668;1217;81574;-63
2021/07/05 08:43:33;;;;;;;5.00;4.60;;;;;;;34.70;46.04;99870.98;92710;1221;65783;-61
2021/07/05 08:45:43;;;;;;;6.50;5.20;;;;;;;33.54;45.38;99868.52;92708;1222;68553;-67
2021/07/05 08:47:55;;;;;;;5.40;4.90;;;;;;;32.89;46.15;99864.84;92702;1223;87615;-68
2021/07/05 08:50:03;;;;;;;5.20;4.70;;;;;;;33.29;47.92;99866.94;92709;1223;75341;-62
2021/07/05 08:52:11;;;;;;;6.10;5.50;;;;;;;33.81;46.12;99867.73;92724;1221;81317;-64
2021/07/05 08:54:22;;;;;;;5.40;4.90;;;;;;;33.72;45.67;99861.46;92738;1219;66658;-65
2021/07/05 08:56:30;;;;;;;4.90;4.50;;;;;;;34.10;46.49;99860.95;92724;1224;69075;-62
2021/07/05 08:58:39;;;;;;;5.30;4.80;;;;;;;34.32;44.50;99861.17;92692;1217;86827;-62
2021/07/05 09:00:50;;;;;;;5.40;4.90;;;;;;;34.30;45.33;99868.33;92738;1209;73948;-61
2021/07/05 09:03:03;;;;;;;5.40;4.80;;;;;;;34.02;45.29;99857.12;92711;1221;81530;-61
2021/07/05 09:05:13;;;;;;;16.10;7.60;;;;;;;34.18;46.37;99855.19;92699;1217;66182;-60
2021/07/05 09:07:21;;;;;;;17.50;8.10;;;;;;;34.25;44.89;99857.38;92732;1221;69540;-61
2021/07/05 09:09:28;;;;;;;10.80;6.00;;;;;;;33.96;44.51;99855.74;92696;1224;86595;-61
2021/07/05 09:11:44;;;;;;;13.40;6.30;;;;;;;32.99;45.35;99853.17;92686;1222;74959;-68
2021/07/05 09:13:56;;;;;;;7.60;5.20;;;;;;;32.09;45.89;99864.50;92714;1224;82120;-67
2021/07/05 09:16:04;;;;;;;11.00;6.10;;;;;;;31.18;47.18;99861.78;92618;1220;65950;-61
2021/07/05 09:18:30;;;;;;;8.00;5.50;;;;;;;30.56;47.84;99856.05;92721;1209;68623;-60
2021/07/05 09:20:38;;;;;;;6.10;5.50;;;;;;;30.14;49.45;99860.59;92719;1216;87127;-58
2021/07/05 09:23:13;;;;;;;6.50;5.80;;;;;;;30.57;50.27;99857.70;92737;1214;74694;-62
2021/07/05 09:25:38;;;;;;;6.00;5.50;;;;;;;30.22;49.68;99850.56;92705;1222;80979;-78
2021/07/05 09:27:46;;;;;;;6.40;5.90;;;;;;;29.78;50.39;99858.17;92651;1217;67117;-81
2021/07/05 09:29:54;;;;;;;6.00;5.50;;;;;;;30.12;51.29;99857.33;92718;1223;68713;-59
2021/07/05 09:32:08;;;;;;;6.00;5.40;;;;;;;30.70;51.18;99855.82;92694;1218;86819;-62
2021/07/05 09:34:24;;;;;;;5.50;5.00;;;;;;;30.81;49.91;99855.11;92734;1218;74172;-61
2021/07/05 09:36:32;;;;;;;5.90;5.20;;;;;;;30.96;50.46;99854.55;92673;1218;82280;-61
2021/07/05 09:38:43;;;;;;;5.80;5.30;;;;;;;30.62;49.36;99857.50;92683;1224;65399;-60
2021/07/05 09:40:50;;;;;;;6.50;5.50;;;;;;;30.33;49.81;99851.84;92668;1217;67928;-79
2021/07/05 09:43:20;;;;;;;5.90;5.30;;;;;;;30.58;49.73;99847.34;92686;1217;87287;-75
2021/07/05 09:45:36;;;;;;;5.60;5.10;;;;;;;30.58;49.57;99842.58;92671;1217;73735;-59
2021/07/05 09:47:44;;;;;;;5.90;5.40;;;;;;;30.47;49.08;99846.07;92709;1221;80384;-60
2021/07/05 09:49:57;;;;;;;6.40;5.70;;;;;;;30.10;49.10;99842.09;92693;1217;66131;-61
2021/07/05 09:52:13;;;;;;;;;;;;;;;30.16;50.56;99847.13;92738;1217;69506;-61
2021/07/05 09:54:29;;;;;;;7.00;5.20;;;;;;;30.17;49.01;99850.74;92692;1216;86486;-61
2021/07/05 09:56:40;;;;;;;5.30;4.80;;;;;;;29.95;49.48;99850.96;92697;1217;74151;-70
2021/07/05 09:58:54;;;;;;;6.20;5.60;;;;;;;29.52;49.75;99849.03;92637;1216;81264;-72
2021/07/05 10:01:01;;;;;;;6.50;5.60;;;;;;;29.30;50.45;99842.80;92692;1216;65677;-70
2021/07/05 10:03:14;;;;;;;5.40;4.90;;;;;;;29.50;51.19;99840.16;92712;1210;68824;-76